sensor_id;sensor_type;location;lat;lon;timestamp;pressure;altitude;pressure_sealevel;temperature;humidity
14295;BME280;7231;59.370;18.016;2023-06-14T00:02:09;101890.81;;;16.83;45.78
14295;BME280;7231;59.370;18.016;2023-06-14T00:04:37;101889.06;;;16.85;46.08
14295;BME280;7231;59.370;18.016;2023-06-14T00:07:09;101883.78;;;16.85;46.16
14295;BME280;7231;59.370;18.016;2023-06-14T00:09:40;101890.78;;;16.81;46.22
14295;BME280;7231;59.370;18.016;2023-06-14T00:12:08;101871.81;;;16.62;46.48
14295;BME280;7231;59.370;18.016;2023-06-14T00:14:37;101892.06;;;16.60;46.92
14295;BME280;7231;59.370;18.016;2023-06-14T00:17:05;101883.03;;;16.48;47.34
14295;BME280;7231;59.370;18.016;2023-06-14T00:19:34;101890.81;;;16.41;47.72
14295;BME280;7231;59.370;18.016;2023-06-14T00:22:03;101887.09;;;16.33;48.27
14295;BME280;7231;59.370;18.016;2023-06-14T00:24:33;101883.59;;;16.34;48.61
14295;BME280;7231;59.370;18.016;2023-06-14T00:27:01;101884.56;;;16.37;48.64
14295;BME280;7231;59.370;18.016;2023-06-14T00:29:29;101867.72;;;16.34;48.83
14295;BME280;7231;59.370;18.016;2023-06-14T00:31:57;101888.19;;;16.42;48.98
14295;BME280;7231;59.370;18.016;2023-06-14T00:34:25;101839.16;;;16.17;48.98
14295;BME280;7231;59.370;18.016;2023-06-14T00:36:53;101894.34;;;16.41;48.99
14295;BME280;7231;59.370;18.016;2023-06-14T00:39:21;101883.69;;;16.38;49.15
14295;BME280;7231;59.370;18.016;2023-06-14T00:41:50;101893.34;;;16.36;49.47
14295;BME280;7231;59.370;18.016;2023-06-14T00:44:18;101895.94;;;16.33;49.42
14295;BME280;7231;59.370;18.016;2023-06-14T00:46:46;101900.44;;;16.37;49.58
14295;BME280;7231;59.370;18.016;2023-06-14T00:49:15;101908.34;;;16.36;49.47
14295;BME280;7231;59.370;18.016;2023-06-14T00:51:43;101898.47;;;16.29;49.61
14295;BME280;7231;59.370;18.016;2023-06-14T00:54:12;101897.53;;;16.25;49.73
14295;BME280;7231;59.370;18.016;2023-06-14T00:56:40;101901.09;;;16.27;49.92
14295;BME280;7231;59.370;18.016;2023-06-14T00:59:12;101901.22;;;16.33;49.91
14295;BME280;7231;59.370;18.016;2023-06-14T01:01:42;101886.16;;;16.29;49.74
14295;BME280;7231;59.370;18.016;2023-06-14T01:04:10;101908.28;;;16.33;50.01
14295;BME280;7231;59.370;18.016;2023-06-14T01:06:44;101894.16;;;16.32;50.36
14295;BME280;7231;59.370;18.016;2023-06-14T01:09:25;101884.19;;;16.20;50.59
14295;BME280;7231;59.370;18.016;2023-06-14T01:12:11;101903.75;;;16.27;50.90
14295;BME280;7231;59.370;18.016;2023-06-14T01:14:43;101906.31;;;16.24;50.59
14295;BME280;7231;59.370;18.016;2023-06-14T01:17:12;101906.13;;;16.15;50.60
14295;BME280;7231;59.370;18.016;2023-06-14T01:19:43;101910.25;;;16.02;50.81
14295;BME280;7231;59.370;18.016;2023-06-14T01:22:12;101910.94;;;15.94;51.18
14295;BME280;7231;59.370;18.016;2023-06-14T01:24:42;101864.31;;;15.61;51.68
14295;BME280;7231;59.370;18.016;2023-06-14T01:27:12;101907.09;;;15.81;51.90
14295;BME280;7231;59.370;18.016;2023-06-14T01:29:42;101901.88;;;15.84;52.11
14295;BME280;7231;59.370;18.016;2023-06-14T01:32:12;101899.16;;;15.81;52.20
14295;BME280;7231;59.370;18.016;2023-06-14T01:34:41;101889.16;;;15.68;52.38
14295;BME280;7231;59.370;18.016;2023-06-14T01:37:10;101843.59;;;15.42;52.65
14295;BME280;7231;59.370;18.016;2023-06-14T01:39:41;101898.09;;;15.73;53.15
14295;BME280;7231;59.370;18.016;2023-06-14T01:42:12;101876.75;;;15.65;53.85
14295;BME280;7231;59.370;18.016;2023-06-14T01:44:42;101900.78;;;15.74;54.51
14295;BME280;7231;59.370;18.016;2023-06-14T01:47:10;101832.78;;;15.33;54.78
14295;BME280;7231;59.370;18.016;2023-06-14T01:49:39;101850.81;;;15.49;55.52
14295;BME280;7231;59.370;18.016;2023-06-14T01:52:07;101895.41;;;15.71;55.86
14295;BME280;7231;59.370;18.016;2023-06-14T01:54:36;101891.88;;;15.71;56.18
14295;BME280;7231;59.370;18.016;2023-06-14T01:57:11;101897.22;;;15.74;56.73
14295;BME280;7231;59.370;18.016;2023-06-14T01:59:39;101899.09;;;15.78;56.63
14295;BME280;7231;59.370;18.016;2023-06-14T02:02:08;101883.97;;;15.72;56.77
14295;BME280;7231;59.370;18.016;2023-06-14T02:04:36;101877.97;;;15.79;56.80
14295;BME280;7231;59.370;18.016;2023-06-14T02:07:04;101893.19;;;15.89;56.88
14295;BME280;7231;59.370;18.016;2023-06-14T02:09:32;101894.97;;;15.90;56.99
14295;BME280;7231;59.370;18.016;2023-06-14T02:12:00;101881.75;;;15.90;56.96
14295;BME280;7231;59.370;18.016;2023-06-14T02:14:30;101872.81;;;15.85;56.42
14295;BME280;7231;59.370;18.016;2023-06-14T02:16:58;101897.78;;;15.97;56.20
14295;BME280;7231;59.370;18.016;2023-06-14T02:19:27;101894.34;;;16.01;56.22
14295;BME280;7231;59.370;18.016;2023-06-14T02:21:55;101896.13;;;16.02;56.08
14295;BME280;7231;59.370;18.016;2023-06-14T02:24:23;101876.53;;;15.94;56.67
14295;BME280;7231;59.370;18.016;2023-06-14T02:26:51;101891.69;;;16.01;57.25
14295;BME280;7231;59.370;18.016;2023-06-14T02:29:19;101888.97;;;15.98;57.66
14295;BME280;7231;59.370;18.016;2023-06-14T02:31:49;101883.66;;;15.96;58.40
14295;BME280;7231;59.370;18.016;2023-06-14T02:34:17;101886.41;;;16.01;58.49
14295;BME280;7231;59.370;18.016;2023-06-14T02:36:46;101890.94;;;16.06;58.66
14295;BME280;7231;59.370;18.016;2023-06-14T02:39:14;101895.41;;;16.09;58.68
14295;BME280;7231;59.370;18.016;2023-06-14T02:41:43;101891.13;;;16.15;58.71
14295;BME280;7231;59.370;18.016;2023-06-14T02:44:12;101896.34;;;16.11;58.98
14295;BME280;7231;59.370;18.016;2023-06-14T02:46:40;101890.94;;;16.06;59.09
14295;BME280;7231;59.370;18.016;2023-06-14T02:49:11;101896.13;;;16.02;59.48
14295;BME280;7231;59.370;18.016;2023-06-14T02:51:39;101877.97;;;15.79;60.08
14295;BME280;7231;59.370;18.016;2023-06-14T02:54:07;101907.44;;;15.95;60.73
14295;BME280;7231;59.370;18.016;2023-06-14T02:56:35;101906.63;;;15.99;61.12
14295;BME280;7231;59.370;18.016;2023-06-14T02:59:03;101907.50;;;15.98;61.72
14295;BME280;7231;59.370;18.016;2023-06-14T03:01:31;101906.38;;;15.88;62.17
14295;BME280;7231;59.370;18.016;2023-06-14T03:04:01;101917.03;;;15.91;62.67
14295;BME280;7231;59.370;18.016;2023-06-14T03:06:31;101918.75;;;15.89;63.21
14295;BME280;7231;59.370;18.016;2023-06-14T03:09:00;101887.63;;;15.77;63.08
14295;BME280;7231;59.370;18.016;2023-06-14T03:11:31;101926.91;;;15.98;62.87
14295;BME280;7231;59.370;18.016;2023-06-14T03:14:00;101917.28;;;16.02;62.63
14295;BME280;7231;59.370;18.016;2023-06-14T03:16:30;101918.22;;;16.04;62.44
14295;BME280;7231;59.370;18.016;2023-06-14T03:18:58;101918.19;;;16.02;62.49
14295;BME280;7231;59.370;18.016;2023-06-14T03:21:27;101928.75;;;16.02;62.58
14295;BME280;7231;59.370;18.016;2023-06-14T03:23:57;101915.41;;;15.96;62.65
14295;BME280;7231;59.370;18.016;2023-06-14T03:26:25;101921.69;;;16.01;62.55
14295;BME280;7231;59.370;18.016;2023-06-14T03:28:54;101916.34;;;16.00;62.56
14295;BME280;7231;59.370;18.016;2023-06-14T03:31:22;101923.50;;;16.04;62.50
14295;BME280;7231;59.370;18.016;2023-06-14T03:33:50;101920.97;;;16.08;62.41
14295;BME280;7231;59.370;18.016;2023-06-14T03:36:18;101926.44;;;16.16;62.34
14295;BME280;7231;59.370;18.016;2023-06-14T03:38:46;101923.97;;;16.23;62.41
14295;BME280;7231;59.370;18.016;2023-06-14T03:41:16;101925.84;;;16.29;62.52
14295;BME280;7231;59.370;18.016;2023-06-14T03:43:44;101925.00;;;16.30;62.08
14295;BME280;7231;59.370;18.016;2023-06-14T03:46:12;101927.59;;;16.29;61.72
14295;BME280;7231;59.370;18.016;2023-06-14T03:48:40;101923.09;;;16.24;61.72
14295;BME280;7231;59.370;18.016;2023-06-14T03:51:10;101919.34;;;16.15;61.34
14295;BME280;7231;59.370;18.016;2023-06-14T03:53:38;101936.25;;;16.21;61.38
14295;BME280;7231;59.370;18.016;2023-06-14T03:56:26;101925.69;;;16.21;61.24
14295;BME280;7231;59.370;18.016;2023-06-14T03:58:54;101901.56;;;16.08;61.12
14295;BME280;7231;59.370;18.016;2023-06-14T04:01:23;101931.94;;;16.25;61.10
14295;BME280;7231;59.370;18.016;2023-06-14T04:03:56;101932.91;;;16.29;61.14
14295;BME280;7231;59.370;18.016;2023-06-14T04:06:25;101927.63;;;16.30;61.22
14295;BME280;7231;59.370;18.016;2023-06-14T04:08:59;101934.78;;;16.34;61.41
14295;BME280;7231;59.370;18.016;2023-06-14T04:11:32;101919.81;;;16.36;61.40
14295;BME280;7231;59.370;18.016;2023-06-14T04:14:02;101911.88;;;16.36;61.47
14295;BME280;7231;59.370;18.016;2023-06-14T04:16:30;101931.56;;;16.49;61.21
14295;BME280;7231;59.370;18.016;2023-06-14T04:18:58;101928.03;;;16.48;61.43
14295;BME280;7231;59.370;18.016;2023-06-14T04:21:26;101935.19;;;16.52;61.65
14295;BME280;7231;59.370;18.016;2023-06-14T04:23:55;101936.03;;;16.51;61.68
14295;BME280;7231;59.370;18.016;2023-06-14T04:26:23;101925.56;;;16.58;61.53
14295;BME280;7231;59.370;18.016;2023-06-14T04:28:58;101913.44;;;16.67;61.03
14295;BME280;7231;59.370;18.016;2023-06-14T04:31:29;101919.81;;;16.77;60.41
14295;BME280;7231;59.370;18.016;2023-06-14T04:34:00;101927.94;;;16.86;60.03
14295;BME280;7231;59.370;18.016;2023-06-14T04:36:33;101890.59;;;16.72;59.53
14295;BME280;7231;59.370;18.016;2023-06-14T04:39:03;101924.66;;;16.98;59.18
14295;BME280;7231;59.370;18.016;2023-06-14T04:41:32;101921.28;;;17.06;58.88
14295;BME280;7231;59.370;18.016;2023-06-14T04:44:03;101913.38;;;17.09;58.75
14295;BME280;7231;59.370;18.016;2023-06-14T04:46:31;101911.06;;;17.28;58.29
14295;BME280;7231;59.370;18.016;2023-06-14T04:48:59;101919.25;;;17.40;57.80
14295;BME280;7231;59.370;18.016;2023-06-14T04:51:30;101908.75;;;17.46;57.24
14295;BME280;7231;59.370;18.016;2023-06-14T04:54:00;101915.03;;;17.52;56.60
14295;BME280;7231;59.370;18.016;2023-06-14T04:56:29;101918.72;;;17.61;56.16
14295;BME280;7231;59.370;18.016;2023-06-14T04:58:57;101871.50;;;17.40;56.04
14295;BME280;7231;59.370;18.016;2023-06-14T05:01:27;101910.09;;;17.74;56.03
14295;BME280;7231;59.370;18.016;2023-06-14T05:03:55;101921.84;;;17.90;55.84
14295;BME280;7231;59.370;18.016;2023-06-14T05:06:23;101822.09;;;17.45;55.36
14295;BME280;7231;59.370;18.016;2023-06-14T05:08:51;101912.44;;;18.11;55.22
14295;BME280;7231;59.370;18.016;2023-06-14T05:11:19;101916.09;;;18.20;54.80
14295;BME280;7231;59.370;18.016;2023-06-14T05:13:47;101918.00;;;18.33;54.59
14295;BME280;7231;59.370;18.016;2023-06-14T05:16:16;101918.19;;;18.46;54.13
14295;BME280;7231;59.370;18.016;2023-06-14T05:18:47;101916.63;;;18.61;53.61
14295;BME280;7231;59.370;18.016;2023-06-14T05:21:15;101921.25;;;18.77;53.15
14295;BME280;7231;59.370;18.016;2023-06-14T05:23:44;101914.34;;;18.93;52.64
14295;BME280;7231;59.370;18.016;2023-06-14T05:26:12;101926.94;;;19.10;52.45
14295;BME280;7231;59.370;18.016;2023-06-14T05:28:40;101915.59;;;19.27;52.11
14295;BME280;7231;59.370;18.016;2023-06-14T05:31:08;101901.47;;;19.34;51.87
14295;BME280;7231;59.370;18.016;2023-06-14T05:33:36;101914.16;;;19.61;51.51
14295;BME280;7231;59.370;18.016;2023-06-14T05:36:06;101912.50;;;19.76;50.82
14295;BME280;7231;59.370;18.016;2023-06-14T05:38:34;101916.19;;;19.94;50.56
14295;BME280;7231;59.370;18.016;2023-06-14T05:41:02;101918.94;;;20.09;50.05
14295;BME280;7231;59.370;18.016;2023-06-14T05:43:30;101824.63;;;19.70;49.60
14295;BME280;7231;59.370;18.016;2023-06-14T05:45:58;101921.75;;;20.38;49.30
14295;BME280;7231;59.370;18.016;2023-06-14T05:48:26;101926.31;;;20.53;49.31
14295;BME280;7231;59.370;18.016;2023-06-14T05:50:56;101913.91;;;20.64;49.23
14295;BME280;7231;59.370;18.016;2023-06-14T05:53:25;101915.72;;;20.77;49.67
14295;BME280;7231;59.370;18.016;2023-06-14T05:55:53;101925.53;;;20.90;49.75
14295;BME280;7231;59.370;18.016;2023-06-14T05:58:21;101832.13;;;20.49;49.71
14295;BME280;7231;59.370;18.016;2023-06-14T06:00:49;101917.56;;;21.15;49.46
14295;BME280;7231;59.370;18.016;2023-06-14T06:03:20;101914.97;;;21.28;49.08
14295;BME280;7231;59.370;18.016;2023-06-14T06:05:49;101907.84;;;21.41;48.81
14295;BME280;7231;59.370;18.016;2023-06-14T06:08:17;101901.63;;;21.54;48.34
14295;BME280;7231;59.370;18.016;2023-06-14T06:10:47;101919.41;;;21.72;47.92
14295;BME280;7231;59.370;18.016;2023-06-14T06:13:15;101921.19;;;21.81;47.75
14295;BME280;7231;59.370;18.016;2023-06-14T06:15:43;101920.28;;;21.85;47.44
14295;BME280;7231;59.370;18.016;2023-06-14T06:18:11;101914.94;;;21.88;47.34
14295;BME280;7231;59.370;18.016;2023-06-14T06:20:39;101932.75;;;21.92;47.22
14295;BME280;7231;59.370;18.016;2023-06-14T06:23:07;101922.06;;;21.95;47.35
14295;BME280;7231;59.370;18.016;2023-06-14T06:25:36;101921.16;;;21.96;46.93
14295;BME280;7231;59.370;18.016;2023-06-14T06:28:06;101930.94;;;22.00;47.07
14295;BME280;7231;59.370;18.016;2023-06-14T06:30:34;101932.75;;;21.98;47.01
14295;BME280;7231;59.370;18.016;2023-06-14T06:33:02;101925.63;;;21.95;46.88
14295;BME280;7231;59.370;18.016;2023-06-14T06:35:31;101938.09;;;22.04;47.05
14295;BME280;7231;59.370;18.016;2023-06-14T06:38:00;101936.31;;;22.09;46.97
14295;BME280;7231;59.370;18.016;2023-06-14T06:40:28;101931.84;;;22.11;47.03
14295;BME280;7231;59.370;18.016;2023-06-14T06:42:56;101939.88;;;22.14;46.88
14295;BME280;7231;59.370;18.016;2023-06-14T06:45:25;101940.75;;;22.18;46.64
14295;BME280;7231;59.370;18.016;2023-06-14T06:47:54;101929.16;;;22.17;46.83
14295;BME280;7231;59.370;18.016;2023-06-14T06:50:23;101945.19;;;22.26;46.41
14295;BME280;7231;59.370;18.016;2023-06-14T06:52:51;101942.50;;;22.29;46.53
14295;BME280;7231;59.370;18.016;2023-06-14T06:55:20;101927.38;;;22.22;46.44
14295;BME280;7231;59.370;18.016;2023-06-14T06:57:48;101954.06;;;22.34;46.24
14295;BME280;7231;59.370;18.016;2023-06-14T07:00:19;101875.78;;;21.96;46.04
14295;BME280;7231;59.370;18.016;2023-06-14T07:02:49;101945.16;;;22.40;45.77
14295;BME280;7231;59.370;18.016;2023-06-14T07:05:18;101948.69;;;22.50;46.07
14295;BME280;7231;59.370;18.016;2023-06-14T07:07:46;101946.84;;;22.61;46.03
14295;BME280;7231;59.370;18.016;2023-06-14T07:10:14;101950.34;;;22.75;44.86
14295;BME280;7231;59.370;18.016;2023-06-14T07:12:42;101952.06;;;22.97;44.25
14295;BME280;7231;59.370;18.016;2023-06-14T07:15:10;101955.47;;;23.22;43.75
14295;BME280;7231;59.370;18.016;2023-06-14T07:17:39;101948.09;;;23.50;43.25
14295;BME280;7231;59.370;18.016;2023-06-14T07:20:10;101946.13;;;23.78;42.70
14295;BME280;7231;59.370;18.016;2023-06-14T07:22:41;101948.53;;;24.07;41.99
14295;BME280;7231;59.370;18.016;2023-06-14T07:25:09;101938.53;;;24.26;40.83
14295;BME280;7231;59.370;18.016;2023-06-14T07:27:41;101948.22;;;24.38;40.28
14295;BME280;7231;59.370;18.016;2023-06-14T07:30:09;101837.16;;;23.82;39.81
14295;BME280;7231;59.370;18.016;2023-06-14T07:32:38;101951.66;;;24.50;39.76
14295;BME280;7231;59.370;18.016;2023-06-14T07:35:07;101941.75;;;24.57;39.44
14295;BME280;7231;59.370;18.016;2023-06-14T07:37:37;101946.09;;;24.67;38.08
14295;BME280;7231;59.370;18.016;2023-06-14T07:40:06;101940.63;;;24.75;36.54
14295;BME280;7231;59.370;18.016;2023-06-14T07:42:35;101929.91;;;24.75;35.39
14295;BME280;7231;59.370;18.016;2023-06-14T07:45:03;101943.88;;;25.01;34.42
14295;BME280;7231;59.370;18.016;2023-06-14T07:47:32;101915.09;;;25.11;34.85
14295;BME280;7231;59.370;18.016;2023-06-14T07:50:00;101933.16;;;25.58;34.37
14295;BME280;7231;59.370;18.016;2023-06-14T07:52:29;101938.91;;;26.37;33.84
14295;BME280;7231;59.370;18.016;2023-06-14T07:54:59;101809.13;;;26.67;32.10
14295;BME280;7231;59.370;18.016;2023-06-14T07:57:26;101931.66;;;28.29;30.39
14295;BME280;7231;59.370;18.016;2023-06-14T07:59:55;101916.75;;;29.05;29.15
14295;BME280;7231;59.370;18.016;2023-06-14T08:02:23;101921.59;;;29.77;28.16
14295;BME280;7231;59.370;18.016;2023-06-14T08:04:51;101911.13;;;30.42;26.80
14295;BME280;7231;59.370;18.016;2023-06-14T08:07:19;101924.75;;;30.87;26.06
14295;BME280;7231;59.370;18.016;2023-06-14T08:09:47;101914.94;;;31.28;25.17
14295;BME280;7231;59.370;18.016;2023-06-14T08:12:17;101896.31;;;31.63;24.38
14295;BME280;7231;59.370;18.016;2023-06-14T08:14:45;101914.41;;;32.05;24.20
14295;BME280;7231;59.370;18.016;2023-06-14T08:17:21;101910.34;;;32.35;23.93
14295;BME280;7231;59.370;18.016;2023-06-14T08:19:48;101912.28;;;32.71;23.82
14295;BME280;7231;59.370;18.016;2023-06-14T08:22:17;101908.91;;;33.03;23.51
14295;BME280;7231;59.370;18.016;2023-06-14T08:24:46;101904.06;;;33.29;23.44
14295;BME280;7231;59.370;18.016;2023-06-14T08:27:14;101908.91;;;33.58;22.46
14295;BME280;7231;59.370;18.016;2023-06-14T08:29:43;101886.50;;;33.53;22.57
14295;BME280;7231;59.370;18.016;2023-06-14T08:32:12;101901.22;;;33.83;22.69
14295;BME280;7231;59.370;18.016;2023-06-14T08:34:40;101907.13;;;34.09;23.08
14295;BME280;7231;59.370;18.016;2023-06-14T08:37:18;101902.31;;;34.31;22.47
14295;BME280;7231;59.370;18.016;2023-06-14T08:39:46;101904.72;;;34.53;22.52
14295;BME280;7231;59.370;18.016;2023-06-14T08:42:15;101906.16;;;34.76;22.79
14295;BME280;7231;59.370;18.016;2023-06-14T08:44:58;101909.81;;;34.92;23.04
14295;BME280;7231;59.370;18.016;2023-06-14T08:47:27;101913.31;;;35.10;23.16
14295;BME280;7231;59.370;18.016;2023-06-14T08:49:57;101902.22;;;35.29;22.76
14295;BME280;7231;59.370;18.016;2023-06-14T08:52:27;101906.47;;;35.19;22.65
14295;BME280;7231;59.370;18.016;2023-06-14T08:55:00;101919.13;;;35.20;23.12
14295;BME280;7231;59.370;18.016;2023-06-14T08:57:29;101908.75;;;35.26;23.10
14295;BME280;7231;59.370;18.016;2023-06-14T09:00:00;101888.34;;;35.33;23.41
14295;BME280;7231;59.370;18.016;2023-06-14T09:02:36;101900.25;;;35.62;23.69
14295;BME280;7231;59.370;18.016;2023-06-14T09:05:05;101906.88;;;35.88;23.21
14295;BME280;7231;59.370;18.016;2023-06-14T09:07:35;101905.84;;;36.19;23.62
14295;BME280;7231;59.370;18.016;2023-06-14T09:10:11;101888.03;;;36.28;23.82
14295;BME280;7231;59.370;18.016;2023-06-14T09:12:39;101893.31;;;36.31;23.66
14295;BME280;7231;59.370;18.016;2023-06-14T09:15:09;101894.38;;;36.28;22.99
14295;BME280;7231;59.370;18.016;2023-06-14T09:17:38;101893.13;;;36.34;22.55
14295;BME280;7231;59.370;18.016;2023-06-14T09:20:08;101890.34;;;36.20;22.98
14295;BME280;7231;59.370;18.016;2023-06-14T09:22:37;101899.84;;;36.28;22.72
14295;BME280;7231;59.370;18.016;2023-06-14T09:25:06;101895.47;;;35.96;22.72
14295;BME280;7231;59.370;18.016;2023-06-14T09:27:34;101897.88;;;35.56;23.35
14295;BME280;7231;59.370;18.016;2023-06-14T09:30:03;101899.88;;;35.68;23.93
14295;BME280;7231;59.370;18.016;2023-06-14T09:32:36;101892.28;;;35.43;24.16
14295;BME280;7231;59.370;18.016;2023-06-14T09:35:05;101891.06;;;35.33;24.09
14295;BME280;7231;59.370;18.016;2023-06-14T09:37:34;101899.84;;;35.54;24.13
14295;BME280;7231;59.370;18.016;2023-06-14T09:40:05;101887.28;;;35.82;23.44
14295;BME280;7231;59.370;18.016;2023-06-14T09:42:33;101894.44;;;36.13;23.15
14295;BME280;7231;59.370;18.016;2023-06-14T09:45:02;101890.53;;;36.45;23.01
14295;BME280;7231;59.370;18.016;2023-06-14T09:47:32;101892.00;;;36.79;22.72
14295;BME280;7231;59.370;18.016;2023-06-14T09:50:00;101892.78;;;37.22;22.06
14295;BME280;7231;59.370;18.016;2023-06-14T09:52:29;101883.88;;;37.19;21.92
14295;BME280;7231;59.370;18.016;2023-06-14T09:54:59;101889.84;;;37.11;22.58
14295;BME280;7231;59.370;18.016;2023-06-14T09:57:28;101890.53;;;36.45;22.43
14295;BME280;7231;59.370;18.016;2023-06-14T10:00:02;101897.88;;;35.56;23.23
14295;BME280;7231;59.370;18.016;2023-06-14T10:02:39;101894.50;;;35.21;24.04
14295;BME280;7231;59.370;18.016;2023-06-14T10:05:11;101897.59;;;35.15;23.50
14295;BME280;7231;59.370;18.016;2023-06-14T10:07:44;101888.63;;;34.97;23.63
14295;BME280;7231;59.370;18.016;2023-06-14T10:10:16;101893.28;;;34.95;23.19
14295;BME280;7231;59.370;18.016;2023-06-14T10:12:44;101893.56;;;34.91;23.34
14295;BME280;7231;59.370;18.016;2023-06-14T10:15:18;101885.78;;;35.14;23.08
14295;BME280;7231;59.370;18.016;2023-06-14T10:17:52;101881.47;;;35.26;23.29
14295;BME280;7231;59.370;18.016;2023-06-14T10:20:28;101893.41;;;35.55;23.47
14295;BME280;7231;59.370;18.016;2023-06-14T10:23:01;101870.34;;;35.75;22.69
14295;BME280;7231;59.370;18.016;2023-06-14T10:25:31;101891.28;;;35.90;22.46
14295;BME280;7231;59.370;18.016;2023-06-14T10:28:14;101893.16;;;36.04;22.63
14295;BME280;7231;59.370;18.016;2023-06-14T10:31:04;101886.78;;;36.33;22.13
14295;BME280;7231;59.370;18.016;2023-06-14T10:33:34;101891.03;;;36.52;22.64
14295;BME280;7231;59.370;18.016;2023-06-14T10:36:24;101882.91;;;36.50;22.13
14295;BME280;7231;59.370;18.016;2023-06-14T10:38:58;101893.34;;;36.58;22.02
14295;BME280;7231;59.370;18.016;2023-06-14T10:41:27;101894.13;;;36.60;21.85
14295;BME280;7231;59.370;18.016;2023-06-14T10:47:25;101894.13;;;36.60;21.62
14295;BME280;7231;59.370;18.016;2023-06-14T10:49:55;101895.59;;;36.65;22.46
14295;BME280;7231;59.370;18.016;2023-06-14T10:52:26;101887.28;;;36.67;22.12
14295;BME280;7231;59.370;18.016;2023-06-14T10:55:15;101882.25;;;36.75;21.48
14295;BME280;7231;59.370;18.016;2023-06-14T10:57:47;101883.59;;;36.54;21.47
14295;BME280;7231;59.370;18.016;2023-06-14T11:00:20;101878.53;;;36.19;21.80
14295;BME280;7231;59.370;18.016;2023-06-14T11:05:54;101876.88;;;35.72;21.64
14295;BME280;7231;59.370;18.016;2023-06-14T11:09:00;101877.13;;;35.54;21.74
14295;BME280;7231;59.370;18.016;2023-06-14T11:11:35;101881.28;;;35.45;22.04
14295;BME280;7231;59.370;18.016;2023-06-14T11:14:05;101882.16;;;35.30;22.66
14295;BME280;7231;59.370;18.016;2023-06-14T11:16:34;101867.22;;;35.37;22.66
14295;BME280;7231;59.370;18.016;2023-06-14T11:19:02;101875.22;;;35.24;22.43
14295;BME280;7231;59.370;18.016;2023-06-14T11:21:33;101879.03;;;34.90;23.50
14295;BME280;7231;59.370;18.016;2023-06-14T11:24:01;101871.84;;;34.89;23.48
14295;BME280;7231;59.370;18.016;2023-06-14T11:26:30;101881.31;;;34.82;22.75
14295;BME280;7231;59.370;18.016;2023-06-14T11:29:01;101877.06;;;34.61;23.13
14295;BME280;7231;59.370;18.016;2023-06-14T11:31:29;101877.59;;;34.67;22.91
14295;BME280;7231;59.370;18.016;2023-06-14T11:33:59;101875.41;;;34.74;23.36
14295;BME280;7231;59.370;18.016;2023-06-14T11:36:28;101877.41;;;34.55;24.09
14295;BME280;7231;59.370;18.016;2023-06-14T11:39:00;101850.84;;;34.42;23.19
14295;BME280;7231;59.370;18.016;2023-06-14T11:41:38;101799.72;;;34.32;23.59
14295;BME280;7231;59.370;18.016;2023-06-14T11:44:07;101837.88;;;34.79;23.41
14295;BME280;7231;59.370;18.016;2023-06-14T11:46:36;101871.19;;;35.15;23.22
14295;BME280;7231;59.370;18.016;2023-06-14T11:49:04;101868.09;;;35.37;22.76
14295;BME280;7231;59.370;18.016;2023-06-14T11:51:34;101870.41;;;35.59;23.53
14295;BME280;7231;59.370;18.016;2023-06-14T11:54:06;101877.94;;;35.70;23.38
14295;BME280;7231;59.370;18.016;2023-06-14T11:56:34;101862.22;;;35.59;22.27
14295;BME280;7231;59.370;18.016;2023-06-14T11:59:04;101872.44;;;35.56;22.79
14295;BME280;7231;59.370;18.016;2023-06-14T12:01:36;101878.56;;;35.45;22.51
14295;BME280;7231;59.370;18.016;2023-06-14T12:04:06;101875.59;;;35.64;22.26
14295;BME280;7231;59.370;18.016;2023-06-14T12:06:34;101819.69;;;35.41;22.33
14295;BME280;7231;59.370;18.016;2023-06-14T12:09:08;101864.41;;;35.38;22.38
14295;BME280;7231;59.370;18.016;2023-06-14T12:11:40;101872.88;;;35.02;22.43
14295;BME280;7231;59.370;18.016;2023-06-14T12:14:09;101871.75;;;34.42;22.57
14295;BME280;7231;59.370;18.016;2023-06-14T12:16:38;101862.09;;;34.19;23.06
14295;BME280;7231;59.370;18.016;2023-06-14T12:19:12;101846.31;;;34.59;22.85
14295;BME280;7231;59.370;18.016;2023-06-14T12:21:41;101856.50;;;35.18;22.92
14295;BME280;7231;59.370;18.016;2023-06-14T12:24:12;101853.00;;;35.76;22.37
14295;BME280;7231;59.370;18.016;2023-06-14T12:26:41;101856.59;;;36.21;22.05
14295;BME280;7231;59.370;18.016;2023-06-14T12:29:09;101862.78;;;36.38;22.12
14295;BME280;7231;59.370;18.016;2023-06-14T12:31:39;101863.56;;;36.67;21.29
14295;BME280;7231;59.370;18.016;2023-06-14T12:34:08;101855.94;;;36.72;21.44
14295;BME280;7231;59.370;18.016;2023-06-14T12:36:36;101862.88;;;36.92;21.65
14295;BME280;7231;59.370;18.016;2023-06-14T12:39:08;101844.75;;;37.04;21.45
14295;BME280;7231;59.370;18.016;2023-06-14T12:41:38;101854.97;;;37.42;21.90
14295;BME280;7231;59.370;18.016;2023-06-14T12:44:08;101852.63;;;37.23;21.74
14295;BME280;7231;59.370;18.016;2023-06-14T12:46:36;101860.63;;;37.26;21.32
14295;BME280;7231;59.370;18.016;2023-06-14T12:49:07;101816.25;;;37.21;21.40
14295;BME280;7231;59.370;18.016;2023-06-14T12:51:36;101864.91;;;37.69;20.29
14295;BME280;7231;59.370;18.016;2023-06-14T12:54:04;101863.16;;;37.68;20.87
14295;BME280;7231;59.370;18.016;2023-06-14T12:56:32;101856.72;;;37.95;21.25
14295;BME280;7231;59.370;18.016;2023-06-14T12:59:01;101844.34;;;38.02;21.29
14295;BME280;7231;59.370;18.016;2023-06-14T13:01:29;101843.78;;;38.10;20.72
14295;BME280;7231;59.370;18.016;2023-06-14T13:03:58;101847.19;;;38.39;20.69
14295;BME280;7231;59.370;18.016;2023-06-14T13:06:26;101829.75;;;38.40;20.57
14295;BME280;7231;59.370;18.016;2023-06-14T13:08:56;101845.28;;;38.52;20.56
14295;BME280;7231;59.370;18.016;2023-06-14T13:11:25;101809.59;;;38.41;21.00